sensor_id;sensor_type;location;lat;lon;timestamp;temperature;humidity
64951;DHT22;51482;47.014;7.652;2023-07-16T00:01:57;21.30;99.90
64951;DHT22;51482;47.014;7.652;2023-07-16T00:04:22;21.30;99.90
64951;DHT22;51482;47.014;7.652;2023-07-16T00:06:48;21.30;99.90
64951;DHT22;51482;47.014;7.652;2023-07-16T00:09:13;21.40;99.90
64951;DHT22;51482;47.014;7.652;2023-07-16T00:11:39;21.30;99.90
64951;DHT22;51482;47.014;7.652;2023-07-16T00:14:04;21.30;99.90
64951;DHT22;51482;47.014;7.652;2023-07-16T00:16:30;21.30;99.90
64951;DHT22;51482;47.014;7.652;2023-07-16T00:18:56;21.80;99.90
64951;DHT22;51482;47.014;7.652;2023-07-16T00:21:21;21.20;99.90
64951;DHT22;51482;47.014;7.652;2023-07-16T00:23:47;21.30;99.90
64951;DHT22;51482;47.014;7.652;2023-07-16T00:26:13;21.20;99.90
64951;DHT22;51482;47.014;7.652;2023-07-16T00:28:39;20.80;99.90
64951;DHT22;51482;47.014;7.652;2023-07-16T00:31:05;21.20;99.90
64951;DHT22;51482;47.014;7.652;2023-07-16T00:33:30;21.60;99.90
64951;DHT22;51482;47.014;7.652;2023-07-16T00:35:56;21.20;99.90
64951;DHT22;51482;47.014;7.652;2023-07-16T00:38:21;21.20;99.90
64951;DHT22;51482;47.014;7.652;2023-07-16T00:40:47;21.10;99.90
64951;DHT22;51482;47.014;7.652;2023-07-16T00:43:13;21.10;99.90
64951;DHT22;51482;47.014;7.652;2023-07-16T00:45:40;21.10;99.90
64951;DHT22;51482;47.014;7.652;2023-07-16T00:48:06;21.00;99.90
64951;DHT22;51482;47.014;7.652;2023-07-16T00:50:33;21.30;99.90
64951;DHT22;51482;47.014;7.652;2023-07-16T00:53:03;21.10;99.90
64951;DHT22;51482;47.014;7.652;2023-07-16T00:55:29;20.80;99.90
64951;DHT22;51482;47.014;7.652;2023-07-16T00:58:01;20.60;99.90
64951;DHT22;51482;47.014;7.652;2023-07-16T01:00:30;20.60;99.90
64951;DHT22;51482;47.014;7.652;2023-07-16T01:02:56;20.60;99.90
64951;DHT22;51482;47.014;7.652;2023-07-16T01:05:23;20.60;99.90
64951;DHT22;51482;47.014;7.652;2023-07-16T01:08:04;20.60;99.90
64951;DHT22;51482;47.014;7.652;2023-07-16T01:10:32;20.50;99.90
64951;DHT22;51482;47.014;7.652;2023-07-16T01:12:58;20.60;99.90
64951;DHT22;51482;47.014;7.652;2023-07-16T01:15:24;20.80;99.90
64951;DHT22;51482;47.014;7.652;2023-07-16T01:17:50;20.40;99.90
64951;DHT22;51482;47.014;7.652;2023-07-16T01:20:15;20.40;99.90
64951;DHT22;51482;47.014;7.652;2023-07-16T01:22:55;20.30;99.90
64951;DHT22;51482;47.014;7.652;2023-07-16T01:28:44;20.20;99.90
64951;DHT22;51482;47.014;7.652;2023-07-16T01:31:15;20.20;99.90
64951;DHT22;51482;47.014;7.652;2023-07-16T01:33:42;20.20;99.90
64951;DHT22;51482;47.014;7.652;2023-07-16T01:36:08;20.10;99.90
64951;DHT22;51482;47.014;7.652;2023-07-16T01:38:35;20.10;99.90
64951;DHT22;51482;47.014;7.652;2023-07-16T01:41:01;20.10;99.90
64951;DHT22;51482;47.014;7.652;2023-07-16T01:43:27;19.80;99.90
64951;DHT22;51482;47.014;7.652;2023-07-16T01:45:52;20.30;99.90
64951;DHT22;51482;47.014;7.652;2023-07-16T01:48:33;20.30;99.90
64951;DHT22;51482;47.014;7.652;2023-07-16T01:50:59;19.70;99.90
64951;DHT22;51482;47.014;7.652;2023-07-16T01:53:24;20.30;99.90
64951;DHT22;51482;47.014;7.652;2023-07-16T01:55:50;20.30;99.90
64951;DHT22;51482;47.014;7.652;2023-07-16T01:58:16;20.30;99.90
64951;DHT22;51482;47.014;7.652;2023-07-16T02:00:41;20.30;99.90
64951;DHT22;51482;47.014;7.652;2023-07-16T02:03:07;20.30;99.90
64951;DHT22;51482;47.014;7.652;2023-07-16T02:05:32;20.70;99.90
64951;DHT22;51482;47.014;7.652;2023-07-16T02:07:58;20.40;99.90
64951;DHT22;51482;47.014;7.652;2023-07-16T02:10:24;20.40;99.90
64951;DHT22;51482;47.014;7.652;2023-07-16T02:12:49;20.40;99.90
64951;DHT22;51482;47.014;7.652;2023-07-16T02:15:15;20.80;99.90
64951;DHT22;51482;47.014;7.652;2023-07-16T02:17:41;20.40;99.90
64951;DHT22;51482;47.014;7.652;2023-07-16T02:20:07;20.20;99.90
64951;DHT22;51482;47.014;7.652;2023-07-16T02:22:34;20.20;99.90
64951;DHT22;51482;47.014;7.652;2023-07-16T02:25:00;20.10;99.90
64951;DHT22;51482;47.014;7.652;2023-07-16T02:27:26;20.00;99.90
64951;DHT22;51482;47.014;7.652;2023-07-16T02:29:52;20.30;99.90
64951;DHT22;51482;47.014;7.652;2023-07-16T02:32:17;20.00;99.90
64951;DHT22;51482;47.014;7.652;2023-07-16T02:34:43;19.90;99.90
64951;DHT22;51482;47.014;7.652;2023-07-16T02:37:08;19.90;99.90
64951;DHT22;51482;47.014;7.652;2023-07-16T02:39:34;19.90;99.90
64951;DHT22;51482;47.014;7.652;2023-07-16T02:41:59;19.90;99.90
64951;DHT22;51482;47.014;7.652;2023-07-16T02:44:25;19.80;99.90
64951;DHT22;51482;47.014;7.652;2023-07-16T02:46:51;20.30;99.90
64951;DHT22;51482;47.014;7.652;2023-07-16T02:49:16;19.70;99.90
64951;DHT22;51482;47.014;7.652;2023-07-16T02:51:42;19.70;99.90
64951;DHT22;51482;47.014;7.652;2023-07-16T02:54:07;19.70;99.90
64951;DHT22;51482;47.014;7.652;2023-07-16T02:56:34;19.60;99.90
64951;DHT22;51482;47.014;7.652;2023-07-16T02:58:59;19.70;99.90
64951;DHT22;51482;47.014;7.652;2023-07-16T03:01:25;19.70;99.90
64951;DHT22;51482;47.014;7.652;2023-07-16T03:03:50;19.70;99.90
64951;DHT22;51482;47.014;7.652;2023-07-16T03:06:16;19.60;99.90
64951;DHT22;51482;47.014;7.652;2023-07-16T03:08:42;19.60;99.90
64951;DHT22;51482;47.014;7.652;2023-07-16T03:11:07;19.60;99.90
64951;DHT22;51482;47.014;7.652;2023-07-16T03:13:33;19.80;99.90
64951;DHT22;51482;47.014;7.652;2023-07-16T03:15:58;19.60;99.90
64951;DHT22;51482;47.014;7.652;2023-07-16T03:18:30;19.60;99.90
64951;DHT22;51482;47.014;7.652;2023-07-16T03:20:57;19.70;99.90
64951;DHT22;51482;47.014;7.652;2023-07-16T03:23:23;19.50;99.90
64951;DHT22;51482;47.014;7.652;2023-07-16T03:25:49;19.50;99.90
64951;DHT22;51482;47.014;7.652;2023-07-16T03:28:14;19.40;99.90
64951;DHT22;51482;47.014;7.652;2023-07-16T03:30:40;19.70;99.90
64951;DHT22;51482;47.014;7.652;2023-07-16T03:33:05;19.50;99.90
64951;DHT22;51482;47.014;7.652;2023-07-16T03:35:31;19.40;99.90
64951;DHT22;51482;47.014;7.652;2023-07-16T03:37:56;19.50;99.90
64951;DHT22;51482;47.014;7.652;2023-07-16T03:40:25;19.50;99.90
64951;DHT22;51482;47.014;7.652;2023-07-16T03:42:50;19.50;99.90
64951;DHT22;51482;47.014;7.652;2023-07-16T03:45:16;19.50;99.90
64951;DHT22;51482;47.014;7.652;2023-07-16T03:47:42;19.40;99.90
64951;DHT22;51482;47.014;7.652;2023-07-16T03:50:08;19.40;99.90
64951;DHT22;51482;47.014;7.652;2023-07-16T03:52:33;19.30;99.90
64951;DHT22;51482;47.014;7.652;2023-07-16T03:54:59;19.60;99.90
64951;DHT22;51482;47.014;7.652;2023-07-16T03:57:27;19.50;99.90
64951;DHT22;51482;47.014;7.652;2023-07-16T03:59:53;19.60;99.90
64951;DHT22;51482;47.014;7.652;2023-07-16T04:02:18;19.50;99.90
64951;DHT22;51482;47.014;7.652;2023-07-16T04:04:44;19.70;99.90
64951;DHT22;51482;47.014;7.652;2023-07-16T04:07:09;19.60;99.90
64951;DHT22;51482;47.014;7.652;2023-07-16T04:09:40;19.70;99.90
64951;DHT22;51482;47.014;7.652;2023-07-16T04:12:06;19.60;99.90
64951;DHT22;51482;47.014;7.652;2023-07-16T04:14:32;19.60;99.90
64951;DHT22;51482;47.014;7.652;2023-07-16T04:16:58;19.60;99.90
64951;DHT22;51482;47.014;7.652;2023-07-16T04:19:23;19.50;99.90
64951;DHT22;51482;47.014;7.652;2023-07-16T04:21:49;19.20;99.90
64951;DHT22;51482;47.014;7.652;2023-07-16T04:24:14;19.50;99.90
64951;DHT22;51482;47.014;7.652;2023-07-16T04:26:40;19.50;99.90
64951;DHT22;51482;47.014;7.652;2023-07-16T04:29:06;19.50;99.90
64951;DHT22;51482;47.014;7.652;2023-07-16T04:31:31;19.60;99.90
64951;DHT22;51482;47.014;7.652;2023-07-16T04:33:57;19.60;99.90
64951;DHT22;51482;47.014;7.652;2023-07-16T04:36:22;19.50;99.90
64951;DHT22;51482;47.014;7.652;2023-07-16T04:38:48;19.60;99.90
64951;DHT22;51482;47.014;7.652;2023-07-16T04:41:13;19.50;99.90
64951;DHT22;51482;47.014;7.652;2023-07-16T04:43:39;19.50;99.90
64951;DHT22;51482;47.014;7.652;2023-07-16T04:46:05;19.60;99.90
64951;DHT22;51482;47.014;7.652;2023-07-16T04:48:30;19.50;99.90
64951;DHT22;51482;47.014;7.652;2023-07-16T04:50:56;19.50;99.90
64951;DHT22;51482;47.014;7.652;2023-07-16T04:53:22;19.40;99.90
64951;DHT22;51482;47.014;7.652;2023-07-16T04:55:48;19.40;99.90
64951;DHT22;51482;47.014;7.652;2023-07-16T04:58:15;19.40;99.90
64951;DHT22;51482;47.014;7.652;2023-07-16T05:00:41;19.40;99.90
64951;DHT22;51482;47.014;7.652;2023-07-16T05:03:06;19.30;99.90
64951;DHT22;51482;47.014;7.652;2023-07-16T05:05:32;19.30;99.90
64951;DHT22;51482;47.014;7.652;2023-07-16T05:07:57;19.40;99.90
64951;DHT22;51482;47.014;7.652;2023-07-16T05:10:23;19.40;99.90
64951;DHT22;51482;47.014;7.652;2023-07-16T05:12:49;19.50;99.90
64951;DHT22;51482;47.014;7.652;2023-07-16T05:15:15;19.70;99.90
64951;DHT22;51482;47.014;7.652;2023-07-16T05:17:41;19.60;99.90
64951;DHT22;51482;47.014;7.652;2023-07-16T05:20:07;19.70;99.90
64951;DHT22;51482;47.014;7.652;2023-07-16T05:22:33;19.80;99.90
64951;DHT22;51482;47.014;7.652;2023-07-16T05:24:58;19.90;99.90
64951;DHT22;51482;47.014;7.652;2023-07-16T05:27:24;19.90;99.90
64951;DHT22;51482;47.014;7.652;2023-07-16T05:29:49;19.90;99.90
64951;DHT22;51482;47.014;7.652;2023-07-16T05:32:15;19.60;99.90
64951;DHT22;51482;47.014;7.652;2023-07-16T05:34:40;20.20;99.90
64951;DHT22;51482;47.014;7.652;2023-07-16T05:37:06;20.20;99.90
64951;DHT22;51482;47.014;7.652;2023-07-16T05:39:31;20.20;99.90
64951;DHT22;51482;47.014;7.652;2023-07-16T05:41:57;20.20;99.90
64951;DHT22;51482;47.014;7.652;2023-07-16T05:44:24;20.30;99.90
64951;DHT22;51482;47.014;7.652;2023-07-16T05:46:49;20.30;99.90
64951;DHT22;51482;47.014;7.652;2023-07-16T05:49:15;20.50;99.90
64951;DHT22;51482;47.014;7.652;2023-07-16T05:51:41;20.40;99.90
64951;DHT22;51482;47.014;7.652;2023-07-16T05:54:06;20.40;99.90
64951;DHT22;51482;47.014;7.652;2023-07-16T05:56:32;20.40;99.90
64951;DHT22;51482;47.014;7.652;2023-07-16T05:58:57;20.50;99.90
64951;DHT22;51482;47.014;7.652;2023-07-16T06:01:23;20.50;99.90
64951;DHT22;51482;47.014;7.652;2023-07-16T06:03:49;20.40;99.90
64951;DHT22;51482;47.014;7.652;2023-07-16T06:06:14;20.50;99.90
64951;DHT22;51482;47.014;7.652;2023-07-16T06:08:40;20.40;99.90
64951;DHT22;51482;47.014;7.652;2023-07-16T06:11:05;20.40;99.90
64951;DHT22;51482;47.014;7.652;2023-07-16T06:13:31;20.40;99.90
64951;DHT22;51482;47.014;7.652;2023-07-16T06:15:56;20.50;99.90
64951;DHT22;51482;47.014;7.652;2023-07-16T06:18:22;20.50;99.90
64951;DHT22;51482;47.014;7.652;2023-07-16T06:20:48;20.90;99.90
64951;DHT22;51482;47.014;7.652;2023-07-16T06:23:14;20.60;99.90
64951;DHT22;51482;47.014;7.652;2023-07-16T06:25:42;20.60;99.90
64951;DHT22;51482;47.014;7.652;2023-07-16T06:28:10;21.20;99.90
64951;DHT22;51482;47.014;7.652;2023-07-16T06:30:36;20.70;99.90
64951;DHT22;51482;47.014;7.652;2023-07-16T06:33:02;20.70;99.90
64951;DHT22;51482;47.014;7.652;2023-07-16T06:35:27;20.70;99.90
64951;DHT22;51482;47.014;7.652;2023-07-16T06:37:53;20.70;99.90
64951;DHT22;51482;47.014;7.652;2023-07-16T06:40:18;20.80;99.90
64951;DHT22;51482;47.014;7.652;2023-07-16T06:42:44;20.80;99.90
64951;DHT22;51482;47.014;7.652;2023-07-16T06:45:10;20.90;99.90
64951;DHT22;51482;47.014;7.652;2023-07-16T06:47:36;20.80;99.90
64951;DHT22;51482;47.014;7.652;2023-07-16T06:50:01;20.80;99.90
64951;DHT22;51482;47.014;7.652;2023-07-16T06:52:27;20.80;99.90
64951;DHT22;51482;47.014;7.652;2023-07-16T06:54:55;20.80;99.90
64951;DHT22;51482;47.014;7.652;2023-07-16T06:57:24;21.00;99.90
64951;DHT22;51482;47.014;7.652;2023-07-16T06:59:50;21.10;99.90
64951;DHT22;51482;47.014;7.652;2023-07-16T07:02:17;21.60;99.90
64951;DHT22;51482;47.014;7.652;2023-07-16T07:04:43;21.20;99.90
64951;DHT22;51482;47.014;7.652;2023-07-16T07:07:08;21.10;99.90
64951;DHT22;51482;47.014;7.652;2023-07-16T07:09:34;21.10;99.90
64951;DHT22;51482;47.014;7.652;2023-07-16T07:12:00;21.40;99.90
64951;DHT22;51482;47.014;7.652;2023-07-16T07:14:25;21.10;99.90
64951;DHT22;51482;47.014;7.652;2023-07-16T07:16:51;21.20;99.90
64951;DHT22;51482;47.014;7.652;2023-07-16T07:19:17;21.10;99.90
64951;DHT22;51482;47.014;7.652;2023-07-16T07:21:42;21.20;99.90
64951;DHT22;51482;47.014;7.652;2023-07-16T07:24:08;21.40;99.90
64951;DHT22;51482;47.014;7.652;2023-07-16T07:26:33;21.40;99.90
64951;DHT22;51482;47.014;7.652;2023-07-16T07:28:59;21.50;99.90
64951;DHT22;51482;47.014;7.652;2023-07-16T07:31:25;21.60;99.90
64951;DHT22;51482;47.014;7.652;2023-07-16T07:33:50;21.50;99.90
64951;DHT22;51482;47.014;7.652;2023-07-16T07:36:16;21.40;99.90
64951;DHT22;51482;47.014;7.652;2023-07-16T07:38:41;21.00;99.90
64951;DHT22;51482;47.014;7.652;2023-07-16T07:41:07;21.30;99.90
64951;DHT22;51482;47.014;7.652;2023-07-16T07:43:32;21.40;99.90
64951;DHT22;51482;47.014;7.652;2023-07-16T07:45:58;21.40;99.90
64951;DHT22;51482;47.014;7.652;2023-07-16T07:48:23;21.30;99.90
64951;DHT22;51482;47.014;7.652;2023-07-16T07:50:49;21.30;99.90
64951;DHT22;51482;47.014;7.652;2023-07-16T07:53:16;21.40;99.90
64951;DHT22;51482;47.014;7.652;2023-07-16T07:55:43;21.60;99.90
64951;DHT22;51482;47.014;7.652;2023-07-16T07:58:09;21.60;99.90
64951;DHT22;51482;47.014;7.652;2023-07-16T08:00:34;21.60;99.90
64951;DHT22;51482;47.014;7.652;2023-07-16T08:03:00;21.80;99.90
64951;DHT22;51482;47.014;7.652;2023-07-16T08:05:26;22.10;99.90
64951;DHT22;51482;47.014;7.652;2023-07-16T08:07:51;22.20;99.90
64951;DHT22;51482;47.014;7.652;2023-07-16T08:10:17;22.40;99.90
64951;DHT22;51482;47.014;7.652;2023-07-16T08:12:43;22.50;99.90
64951;DHT22;51482;47.014;7.652;2023-07-16T08:15:10;22.60;99.90
64951;DHT22;51482;47.014;7.652;2023-07-16T08:17:40;22.70;99.90
64951;DHT22;51482;47.014;7.652;2023-07-16T08:20:06;22.70;99.90
64951;DHT22;51482;47.014;7.652;2023-07-16T08:22:32;22.80;99.90
64951;DHT22;51482;47.014;7.652;2023-07-16T08:24:58;23.00;99.90
64951;DHT22;51482;47.014;7.652;2023-07-16T08:27:23;23.00;99.90
64951;DHT22;51482;47.014;7.652;2023-07-16T08:29:49;23.30;99.90
64951;DHT22;51482;47.014;7.652;2023-07-16T08:32:15;23.40;99.90
64951;DHT22;51482;47.014;7.652;2023-07-16T08:34:40;23.50;99.90
64951;DHT22;51482;47.014;7.652;2023-07-16T08:37:06;23.80;99.90
64951;DHT22;51482;47.014;7.652;2023-07-16T08:39:31;24.10;99.90
64951;DHT22;51482;47.014;7.652;2023-07-16T08:41:57;24.10;99.90
64951;DHT22;51482;47.014;7.652;2023-07-16T08:44:23;24.10;99.90
64951;DHT22;51482;47.014;7.652;2023-07-16T08:46:50;23.80;99.90
64951;DHT22;51482;47.014;7.652;2023-07-16T08:49:18;23.90;99.90
64951;DHT22;51482;47.014;7.652;2023-07-16T08:51:48;24.00;99.90
64951;DHT22;51482;47.014;7.652;2023-07-16T08:54:15;24.00;99.90
64951;DHT22;51482;47.014;7.652;2023-07-16T08:56:45;24.00;99.90
64951;DHT22;51482;47.014;7.652;2023-07-16T08:59:14;24.00;99.90
64951;DHT22;51482;47.014;7.652;2023-07-16T09:01:40;24.20;99.90
64951;DHT22;51482;47.014;7.652;2023-07-16T09:04:05;24.10;99.90
64951;DHT22;51482;47.014;7.652;2023-07-16T09:06:31;24.10;99.90
64951;DHT22;51482;47.014;7.652;2023-07-16T09:08:57;24.40;99.90
64951;DHT22;51482;47.014;7.652;2023-07-16T09:11:22;24.90;99.90
64951;DHT22;51482;47.014;7.652;2023-07-16T09:13:49;25.30;99.90
64951;DHT22;51482;47.014;7.652;2023-07-16T09:16:18;25.70;99.90
64951;DHT22;51482;47.014;7.652;2023-07-16T09:18:44;26.20;99.90
64951;DHT22;51482;47.014;7.652;2023-07-16T09:21:10;26.50;99.90
64951;DHT22;51482;47.014;7.652;2023-07-16T09:23:36;26.40;99.90
64951;DHT22;51482;47.014;7.652;2023-07-16T09:26:02;26.70;99.90
64951;DHT22;51482;47.014;7.652;2023-07-16T09:28:30;27.00;99.90
64951;DHT22;51482;47.014;7.652;2023-07-16T09:31:02;26.90;99.90
64951;DHT22;51482;47.014;7.652;2023-07-16T09:33:28;26.80;99.90
64951;DHT22;51482;47.014;7.652;2023-07-16T09:35:54;26.40;99.90
64951;DHT22;51482;47.014;7.652;2023-07-16T09:38:20;26.30;99.90
64951;DHT22;51482;47.014;7.652;2023-07-16T09:40:46;26.10;99.90
64951;DHT22;51482;47.014;7.652;2023-07-16T09:43:12;26.00;99.90
64951;DHT22;51482;47.014;7.652;2023-07-16T09:45:38;26.40;99.90
64951;DHT22;51482;47.014;7.652;2023-07-16T09:48:04;26.70;99.90
64951;DHT22;51482;47.014;7.652;2023-07-16T09:50:32;26.40;99.90
64951;DHT22;51482;47.014;7.652;2023-07-16T09:52:59;26.40;99.90
64951;DHT22;51482;47.014;7.652;2023-07-16T09:55:25;26.40;99.90
64951;DHT22;51482;47.014;7.652;2023-07-16T09:57:56;26.70;99.90
64951;DHT22;51482;47.014;7.652;2023-07-16T10:00:23;26.60;99.90
64951;DHT22;51482;47.014;7.652;2023-07-16T10:02:51;26.60;99.90
64951;DHT22;51482;47.014;7.652;2023-07-16T10:05:24;27.00;99.90
64951;DHT22;51482;47.014;7.652;2023-07-16T10:07:58;26.80;99.90
64951;DHT22;51482;47.014;7.652;2023-07-16T10:13:04;27.00;99.90
64951;DHT22;51482;47.014;7.652;2023-07-16T10:15:29;26.50;99.90
64951;DHT22;51482;47.014;7.652;2023-07-16T10:17:56;26.40;99.90
64951;DHT22;51482;47.014;7.652;2023-07-16T10:20:33;26.30;99.90
64951;DHT22;51482;47.014;7.652;2023-07-16T10:23:10;26.10;99.90
64951;DHT22;51482;47.014;7.652;2023-07-16T10:25:39;26.40;99.90
64951;DHT22;51482;47.014;7.652;2023-07-16T10:28:05;26.00;99.90
64951;DHT22;51482;47.014;7.652;2023-07-16T10:30:32;26.10;99.90
64951;DHT22;51482;47.014;7.652;2023-07-16T10:33:02;26.00;99.90
64951;DHT22;51482;47.014;7.652;2023-07-16T10:35:27;26.50;99.90
64951;DHT22;51482;47.014;7.652;2023-07-16T10:37:54;25.90;99.90
64951;DHT22;51482;47.014;7.652;2023-07-16T10:40:20;25.80;99.90
64951;DHT22;51482;47.014;7.652;2023-07-16T10:42:45;25.80;99.90
64951;DHT22;51482;47.014;7.652;2023-07-16T10:45:14;26.30;99.90
64951;DHT22;51482;47.014;7.652;2023-07-16T10:47:51;25.80;99.90
64951;DHT22;51482;47.014;7.652;2023-07-16T10:50:19;26.10;99.90
64951;DHT22;51482;47.014;7.652;2023-07-16T10:52:44;26.10;99.90
64951;DHT22;51482;47.014;7.652;2023-07-16T10:55:10;26.20;99.90
64951;DHT22;51482;47.014;7.652;2023-07-16T10:57:35;26.30;99.90
64951;DHT22;51482;47.014;7.652;2023-07-16T11:00:01;26.40;99.90
64951;DHT22;51482;47.014;7.652;2023-07-16T11:02:27;26.60;99.90
64951;DHT22;51482;47.014;7.652;2023-07-16T11:04:53;26.80;99.90
64951;DHT22;51482;47.014;7.652;2023-07-16T11:07:19;27.00;99.90
64951;DHT22;51482;47.014;7.652;2023-07-16T11:09:50;27.10;99.90
64951;DHT22;51482;47.014;7.652;2023-07-16T11:12:18;26.90;99.90
64951;DHT22;51482;47.014;7.652;2023-07-16T11:14:50;27.10;99.90
64951;DHT22;51482;47.014;7.652;2023-07-16T11:17:16;27.60;99.90
64951;DHT22;51482;47.014;7.652;2023-07-16T11:19:45;27.90;99.90
64951;DHT22;51482;47.014;7.652;2023-07-16T11:22:11;28.30;99.90
64951;DHT22;51482;47.014;7.652;2023-07-16T11:24:41;28.70;99.90
64951;DHT22;51482;47.014;7.652;2023-07-16T11:27:42;28.80;99.90
64951;DHT22;51482;47.014;7.652;2023-07-16T11:30:08;28.80;99.90
64951;DHT22;51482;47.014;7.652;2023-07-16T11:32:36;28.60;99.90
64951;DHT22;51482;47.014;7.652;2023-07-16T11:35:04;28.40;99.90
64951;DHT22;51482;47.014;7.652;2023-07-16T11:37:32;27.90;99.90
64951;DHT22;51482;47.014;7.652;2023-07-16T11:40:02;27.30;99.90
64951;DHT22;51482;47.014;7.652;2023-07-16T11:42:32;27.30;99.90
64951;DHT22;51482;47.014;7.652;2023-07-16T11:44:58;27.10;99.90
64951;DHT22;51482;47.014;7.652;2023-07-16T11:47:25;26.90;99.90
64951;DHT22;51482;47.014;7.652;2023-07-16T11:49:50;26.80;99.90
64951;DHT22;51482;47.014;7.652;2023-07-16T11:52:21;26.70;99.90
64951;DHT22;51482;47.014;7.652;2023-07-16T11:54:47;26.60;99.90
64951;DHT22;51482;47.014;7.652;2023-07-16T11:57:12;26.60;99.90
64951;DHT22;51482;47.014;7.652;2023-07-16T11:59:38;26.60;99.90
64951;DHT22;51482;47.014;7.652;2023-07-16T12:02:03;27.10;99.90
64951;DHT22;51482;47.014;7.652;2023-07-16T12:04:29;26.50;99.90
64951;DHT22;51482;47.014;7.652;2023-07-16T12:06:54;26.40;99.90
64951;DHT22;51482;47.014;7.652;2023-07-16T12:09:20;26.40;99.90
64951;DHT22;51482;47.014;7.652;2023-07-16T12:11:46;26.40;99.90
64951;DHT22;51482;47.014;7.652;2023-07-16T12:14:12;26.40;99.90
64951;DHT22;51482;47.014;7.652;2023-07-16T12:16:38;26.50;99.90
64951;DHT22;51482;47.014;7.652;2023-07-16T12:19:05;26.50;99.90
64951;DHT22;51482;47.014;7.652;2023-07-16T12:21:30;26.70;99.90
64951;DHT22;51482;47.014;7.652;2023-07-16T12:23:56;26.40;99.90
64951;DHT22;51482;47.014;7.652;2023-07-16T12:26:22;26.30;99.90
64951;DHT22;51482;47.014;7.652;2023-07-16T12:28:47;26.20;99.90
64951;DHT22;51482;47.014;7.652;2023-07-16T12:31:14;26.20;99.90
64951;DHT22;51482;47.014;7.652;2023-07-16T12:33:40;26.20;99.90
64951;DHT22;51482;47.014;7.652;2023-07-16T12:36:05;26.30;99.90
64951;DHT22;51482;47.014;7.652;2023-07-16T12:38:31;26.70;99.90
64951;DHT22;51482;47.014;7.652;2023-07-16T12:40:56;26.30;99.90
64951;DHT22;51482;47.014;7.652;2023-07-16T12:43:22;26.30;99.90
64951;DHT22;51482;47.014;7.652;2023-07-16T12:45:47;26.50;99.90
64951;DHT22;51482;47.014;7.652;2023-07-16T12:48:13;26.40;99.90
64951;DHT22;51482;47.014;7.652;2023-07-16T12:50:38;26.80;99.90
64951;DHT22;51482;47.014;7.652;2023-07-16T12:53:04;26.80;99.90
64951;DHT22;51482;47.014;7.652;2023-07-16T12:55:29;27.10;99.90
64951;DHT22;51482;47.014;7.652;2023-07-16T12:57:56;27.80;99.90
64951;DHT22;51482;47.014;7.652;2023-07-16T13:00:22;28.10;99.90
64951;DHT22;51482;47.014;7.652;2023-07-16T13:02:47;29.20;99.90
64951;DHT22;51482;47.014;7.652;2023-07-16T13:05:13;28.40;99.90
64951;DHT22;51482;47.014;7.652;2023-07-16T13:07:38;28.50;99.90
64951;DHT22;51482;47.014;7.652;2023-07-16T13:10:04;29.20;99.90
64951;DHT22;51482;47.014;7.652;2023-07-16T13:12:31;28.60;99.90
64951;DHT22;51482;47.014;7.652;2023-07-16T13:14:56;28.90;99.90
64951;DHT22;51482;47.014;7.652;2023-07-16T13:17:22;28.90;99.90
64951;DHT22;51482;47.014;7.652;2023-07-16T13:19:47;28.90;99.90
64951;DHT22;51482;47.014;7.652;2023-07-16T13:22:13;28.90;99.90
64951;DHT22;51482;47.014;7.652;2023-07-16T13:24:39;29.20;99.90
64951;DHT22;51482;47.014;7.652;2023-07-16T13:27:05;29.20;99.90
64951;DHT22;51482;47.014;7.652;2023-07-16T13:29:31;29.40;99.90
64951;DHT22;51482;47.014;7.652;2023-07-16T13:31:56;29.90;99.90
64951;DHT22;51482;47.014;7.652;2023-07-16T13:34:22;29.60;99.90
64951;DHT22;51482;47.014;7.652;2023-07-16T13:36:47;29.30;99.90
64951;DHT22;51482;47.014;7.652;2023-07-16T13:39:13;28.90;99.90
64951;DHT22;51482;47.014;7.652;2023-07-16T13:41:39;28.70;99.90
64951;DHT22;51482;47.014;7.652;2023-07-16T13:44:04;28.50;99.90
64951;DHT22;51482;47.014;7.652;2023-07-16T13:46:30;28.80;99.90
64951;DHT22;51482;47.014;7.652;2023-07-16T13:48:56;28.10;99.90
64951;DHT22;51482;47.014;7.652;2023-07-16T13:51:22;27.90;99.90
64951;DHT22;51482;47.014;7.652;2023-07-16T13:53:48;27.90;99.90
64951;DHT22;51482;47.014;7.652;2023-07-16T13:56:13;27.80;99.90
64951;DHT22;51482;47.014;7.652;2023-07-16T13:58:39;27.70;99.90
64951;DHT22;51482;47.014;7.652;2023-07-16T14:01:04;27.60;99.90
64951;DHT22;51482;47.014;7.652;2023-07-16T14:03:30;27.60;99.90
64951;DHT22;51482;47.014;7.652;2023-07-16T14:05:56;27.60;99.90
64951;DHT22;51482;47.014;7.652;2023-07-16T14:08:21;27.70;99.90
64951;DHT22;51482;47.014;7.652;2023-07-16T14:10:48;27.70;99.90
64951;DHT22;51482;47.014;7.652;2023-07-16T14:13:14;27.70;99.90
64951;DHT22;51482;47.014;7.652;2023-07-16T14:15:41;27.70;99.90
64951;DHT22;51482;47.014;7.652;2023-07-16T14:18:07;27.70;99.90
64951;DHT22;51482;47.014;7.652;2023-07-16T14:20:32;27.60;99.90
64951;DHT22;51482;47.014;7.652;2023-07-16T14:22:58;27.50;99.90
64951;DHT22;51482;47.014;7.652;2023-07-16T14:25:23;27.40;99.90
64951;DHT22;51482;47.014;7.652;2023-07-16T14:27:49;27.30;99.90
64951;DHT22;51482;47.014;7.652;2023-07-16T14:30:15;27.20;99.90
64951;DHT22;51482;47.014;7.652;2023-07-16T14:32:40;27.30;99.90
64951;DHT22;51482;47.014;7.652;2023-07-16T14:35:08;27.40;99.90
64951;DHT22;51482;47.014;7.652;2023-07-16T14:37:34;27.30;99.90
64951;DHT22;51482;47.014;7.652;2023-07-16T14:39:59;27.40;99.90
64951;DHT22;51482;47.014;7.652;2023-07-16T14:42:25;27.30;99.90
64951;DHT22;51482;47.014;7.652;2023-07-16T14:44:50;27.60;99.90
64951;DHT22;51482;47.014;7.652;2023-07-16T14:47:16;27.30;99.90
64951;DHT22;51482;47.014;7.652;2023-07-16T14:49:42;27.40;99.90
64951;DHT22;51482;47.014;7.652;2023-07-16T14:52:07;27.40;99.90
64951;DHT22;51482;47.014;7.652;2023-07-16T14:54:33;27.40;99.90
64951;DHT22;51482;47.014;7.652;2023-07-16T14:57:01;27.90;99.90
64951;DHT22;51482;47.014;7.652;2023-07-16T14:59:28;27.50;99.90
64951;DHT22;51482;47.014;7.652;2023-07-16T15:01:53;27.70;99.90
64951;DHT22;51482;47.014;7.652;2023-07-16T15:04:19;27.70;99.90
64951;DHT22;51482;47.014;7.652;2023-07-16T15:06:44;27.60;99.90
64951;DHT22;51482;47.014;7.652;2023-07-16T15:09:10;27.60;99.90
64951;DHT22;51482;47.014;7.652;2023-07-16T15:11:37;27.60;99.90
64951;DHT22;51482;47.014;7.652;2023-07-16T15:14:03;27.50;99.90
64951;DHT22;51482;47.014;7.652;2023-07-16T15:16:28;27.40;99.90
64951;DHT22;51482;47.014;7.652;2023-07-16T15:18:55;27.40;99.90
64951;DHT22;51482;47.014;7.652;2023-07-16T15:21:20;27.50;99.90
64951;DHT22;51482;47.014;7.652;2023-07-16T15:23:46;27.50;99.90
64951;DHT22;51482;47.014;7.652;2023-07-16T15:26:11;27.50;99.90
64951;DHT22;51482;47.014;7.652;2023-07-16T15:28:38;27.60;99.90
64951;DHT22;51482;47.014;7.652;2023-07-16T15:31:06;27.50;99.90